Time;durP1;ratioP1;P1;durP2;ratioP2;P2;SDS_P1;SDS_P2;PMS_P1;PMS_P2;Temp;Humidity;BMP_temperature;BMP_pressure;BME280_temperature;BME280_humidity;BME280_pressure;Samples;Min_cycle;Max_cycle;Signal;HPM_P1;HPM_P2
2021/06/18 00:01:37;;;;;;;11.53;7.27;;;27.90;57.50;;;;;;5116057;28;20439;-70
2021/06/18 00:04:05;;;;;;;7.67;6.87;;;27.90;57.80;;;;;;5116175;28;20445;-70
2021/06/18 00:06:32;;;;;;;8.50;6.80;;;27.80;57.80;;;;;;5115490;28;20879;-71
2021/06/18 00:08:59;;;;;;;10.70;7.60;;;27.80;57.90;;;;;;5116688;28;20447;-70
2021/06/18 00:11:26;;;;;;;7.97;7.17;;;27.80;58.00;;;;;;5115633;28;20478;-70
2021/06/18 00:13:52;;;;;;;8.93;6.90;;;27.80;58.60;;;;;;5115705;28;20442;-70
2021/06/18 00:16:19;;;;;;;8.40;6.60;;;27.80;58.10;;;;;;5115303;28;20988;-71
2021/06/18 00:18:46;;;;;;;11.97;8.07;;;27.80;58.20;;;;;;5115624;28;20454;-71
2021/06/18 00:21:14;;;;;;;11.97;7.07;;;27.70;58.20;;;;;;5115625;28;20439;-71
2021/06/18 00:23:40;;;;;;;7.70;6.90;;;27.70;58.30;;;;;;5115552;28;20443;-70
2021/06/18 00:26:07;;;;;;;11.77;7.53;;;27.70;58.40;;;;;;5115412;28;20466;-71
2021/06/18 00:28:35;;;;;;;8.90;6.10;;;27.70;58.50;;;;;;5115460;28;20451;-71
2021/06/18 00:31:02;;;;;;;8.23;7.40;;;27.70;58.50;;;;;;5115353;28;20470;-71
2021/06/18 00:33:30;;;;;;;8.60;6.87;;;27.70;58.60;;;;;;5115420;28;20443;-70
2021/06/18 00:35:57;;;;;;;9.63;7.80;;;27.70;58.60;;;;;;5115297;28;20520;-70
2021/06/18 00:38:25;;;;;;;8.10;6.70;;;27.60;58.60;;;;;;5115289;28;20438;-70
2021/06/18 00:40:51;;;;;;;14.60;7.67;;;27.60;58.60;;;;;;5115185;28;20492;-70
2021/06/18 00:43:18;;;;;;;10.33;7.33;;;27.60;58.60;;;;;;5115214;28;20828;-70
2021/06/18 00:45:45;;;;;;;9.03;6.47;;;27.60;58.70;;;;;;5115055;28;20474;-71
2021/06/18 00:48:13;;;;;;;10.23;6.73;;;27.60;58.70;;;;;;5115069;28;20446;-71
2021/06/18 00:50:41;;;;;;;7.83;7.03;;;27.60;58.70;;;;;;5115770;28;20482;-70
2021/06/18 00:53:08;;;;;;;7.50;6.43;;;27.60;58.70;;;;;;5114970;28;20443;-70
2021/06/18 00:55:36;;;;;;;7.37;6.63;;;27.50;58.70;;;;;;5114722;28;20478;-68
2021/06/18 00:58:03;;;;;;;8.67;7.17;;;27.50;58.70;;;;;;5114873;28;20462;-68
2021/06/18 01:00:30;;;;;;;7.07;6.30;;;27.40;58.80;;;;;;5114537;28;20937;-68
2021/06/18 01:02:57;;;;;;;7.00;6.40;;;27.40;58.80;;;;;;5114835;28;20797;-68
2021/06/18 01:05:24;;;;;;;7.93;5.93;;;27.40;58.90;;;;;;5114686;28;20463;-68
2021/06/18 01:08:02;;;;;;;6.37;5.77;;;27.40;59.00;;;;;;5128864;22;20479;-85
2021/06/18 01:10:43;;;;;;;6.43;5.70;;;27.40;59.00;;;;;;5118287;28;20483;-83
2021/06/18 01:13:20;;;;;;;10.13;6.70;;;27.40;59.20;;;;;;5118494;28;20434;-83
2021/06/18 01:15:56;;;;;;;7.37;5.60;;;27.40;59.10;;;;;;5119001;28;20804;-82
2021/06/18 01:18:27;;;;;;;7.77;6.97;;;27.40;59.10;;;;;;5118215;28;20442;-82
2021/06/18 01:21:16;;;;;;;8.30;6.10;;;27.30;59.00;;;;;;5117793;28;20438;-83
2021/06/18 01:23:54;;;;;;;6.40;5.80;;;27.30;59.10;;;;;;5115858;28;20431;-83
2021/06/18 01:26:36;;;;;;;8.00;5.90;;;27.30;59.20;;;;;;5115362;28;20955;-83
2021/06/18 01:29:05;;;;;;;6.10;5.50;;;27.30;59.20;;;;;;5115517;28;20454;-84
2021/06/18 01:31:37;;;;;;;7.20;6.67;;;27.30;59.30;;;;;;5115879;28;20509;-84
2021/06/18 01:34:11;;;;;;;7.70;6.20;;;27.30;59.30;;;;;;5116417;28;20431;-84
2021/06/18 01:36:41;;;;;;;7.27;6.70;;;27.30;59.30;;;;;;5117116;28;20430;-84
2021/06/18 01:39:09;;;;;;;7.10;6.10;;;27.20;59.20;;;;;;5116673;28;20471;-84
2021/06/18 01:41:37;;;;;;;7.83;6.97;;;27.20;59.30;;;;;;5117329;28;20446;-84
2021/06/18 01:44:07;;;;;;;6.77;6.23;;;27.20;59.30;;;;;;5117042;28;20443;-84
2021/06/18 01:46:37;;;;;;;7.33;6.33;;;27.10;59.30;;;;;;5117310;28;20446;-84
2021/06/18 01:49:07;;;;;;;8.90;7.37;;;27.00;59.30;;;;;;5118045;28;20462;-84
2021/06/18 01:51:35;;;;;;;9.30;7.20;;;27.00;59.50;;;;;;5119012;28;20467;-84
2021/06/18 01:54:03;;;;;;;8.77;6.67;;;27.00;59.60;;;;;;5130112;28;20447;-84
2021/06/18 01:56:33;;;;;;;7.50;6.70;;;27.00;59.60;;;;;;5132764;28;20463;-84
2021/06/18 01:59:02;;;;;;;8.40;6.43;;;26.90;59.70;;;;;;5127033;28;20470;-83
2021/06/18 02:01:34;;;;;;;7.53;6.37;;;26.90;59.80;;;;;;5120660;28;20445;-83
2021/06/18 02:04:03;;;;;;;8.10;6.60;;;26.80;59.70;;;;;;5125041;28;20801;-83
2021/06/18 02:06:31;;;;;;;9.00;6.63;;;26.80;59.80;;;;;;5130297;28;20451;-83
2021/06/18 02:09:00;;;;;;;6.87;6.27;;;26.70;60.00;;;;;;5132016;28;20477;-83
2021/06/18 02:11:29;;;;;;;7.77;5.80;;;26.60;60.20;;;;;;5120327;28;20843;-83
2021/06/18 02:13:57;;;;;;;6.20;5.70;;;26.60;60.60;;;;;;5118198;28;20469;-83
2021/06/18 02:16:26;;;;;;;12.63;6.40;;;26.50;60.60;;;;;;5118208;28;20438;-83
2021/06/18 02:18:55;;;;;;;7.90;5.80;;;26.50;60.90;;;;;;5117859;28;20827;-83
2021/06/18 02:21:23;;;;;;;5.77;5.37;;;26.50;60.90;;;;;;5118299;28;20439;-83
2021/06/18 02:23:50;;;;;;;6.07;5.60;;;26.50;60.90;;;;;;5117945;28;20450;-83
2021/06/18 02:26:18;;;;;;;5.90;5.30;;;26.40;60.90;;;;;;5118011;28;20955;-83
2021/06/18 02:28:45;;;;;;;6.33;5.80;;;26.40;60.80;;;;;;5118482;28;20458;-83
2021/06/18 02:31:12;;;;;;;8.77;6.20;;;26.40;60.90;;;;;;5119511;28;20478;-83
2021/06/18 02:33:39;;;;;;;6.97;6.27;;;26.40;61.00;;;;;;5118964;28;20961;-83
2021/06/18 02:36:07;;;;;;;8.97;5.90;;;26.30;60.90;;;;;;5124830;28;20442;-83
2021/06/18 02:38:34;;;;;;;10.47;6.53;;;26.30;61.00;;;;;;5121113;28;20449;-83
2021/06/18 02:41:01;;;;;;;9.30;6.93;;;26.20;61.10;;;;;;5121402;28;20446;-83
2021/06/18 02:43:28;;;;;;;8.37;6.40;;;26.10;61.30;;;;;;5120596;28;20455;-84
2021/06/18 02:45:55;;;;;;;7.83;6.20;;;26.10;61.20;;;;;;5119557;28;20450;-85
2021/06/18 02:48:27;;;;;;;7.53;6.50;;;26.00;61.10;;;;;;5118498;28;20859;-85
2021/06/18 02:51:00;;;;;;;9.07;7.07;;;26.00;61.20;;;;;;5119770;28;20485;-85
2021/06/18 02:53:35;;;;;;;10.10;5.77;;;25.90;61.30;;;;;;5120530;28;20431;-84
2021/06/18 02:56:09;;;;;;;8.60;6.57;;;25.90;61.50;;;;;;5121122;28;20434;-84
2021/06/18 02:58:42;;;;;;;6.53;5.80;;;25.90;61.60;;;;;;5120977;28;20431;-84
2021/06/18 03:01:10;;;;;;;6.97;6.27;;;25.80;61.70;;;;;;5119765;28;20904;-85
2021/06/18 03:03:42;;;;;;;9.40;5.90;;;25.80;61.90;;;;;;5119673;28;20443;-85
2021/06/18 03:06:09;;;;;;;7.10;6.00;;;25.80;62.20;;;;;;5119159;28;20434;-85
2021/06/18 03:08:41;;;;;;;12.60;6.17;;;25.80;62.60;;;;;;5121309;28;20486;-84
2021/06/18 03:11:10;;;;;;;9.73;6.47;;;25.80;63.10;;;;;;5121250;28;20467;-84
2021/06/18 03:13:41;;;;;;;6.63;5.93;;;25.80;63.10;;;;;;5128540;28;20931;-84
2021/06/18 03:16:09;;;;;;;8.30;6.70;;;25.70;63.10;;;;;;5118485;28;20435;-85
2021/06/18 03:18:39;;;;;;;8.47;6.30;;;25.70;63.30;;;;;;5118821;28;20451;-85
2021/06/18 03:21:08;;;;;;;9.50;7.10;;;25.70;63.50;;;;;;5118889;28;20450;-85
2021/06/18 03:23:38;;;;;;;5.70;5.13;;;25.70;63.60;;;;;;5121126;28;20838;-84
2021/06/18 03:26:05;;;;;;;10.60;6.77;;;25.60;63.60;;;;;;5120888;28;20778;-84
2021/06/18 03:28:33;;;;;;;8.43;6.87;;;25.60;63.90;;;;;;5120316;28;20550;-84
2021/06/18 03:31:03;;;;;;;7.27;6.10;;;25.60;63.90;;;;;;5120527;28;20475;-84
2021/06/18 03:33:31;;;;;;;11.77;7.40;;;25.60;63.80;;;;;;5120127;28;20490;-84
2021/06/18 03:35:58;;;;;;;11.10;6.17;;;25.60;64.00;;;;;;5119738;28;20454;-84
2021/06/18 03:38:26;;;;;;;10.00;6.90;;;25.50;64.20;;;;;;5120630;28;20446;-84
2021/06/18 03:40:55;;;;;;;7.90;6.47;;;25.50;64.40;;;;;;5121119;28;20465;-84
2021/06/18 03:43:22;;;;;;;6.83;6.20;;;25.50;64.60;;;;;;5120473;28;20443;-84
2021/06/18 03:45:54;;;;;;;10.73;5.93;;;25.50;64.70;;;;;;5119803;28;20454;-85
2021/06/18 03:48:22;;;;;;;7.70;6.80;;;25.50;65.00;;;;;;5120293;28;20439;-84
2021/06/18 03:50:49;;;;;;;7.13;6.00;;;25.50;65.10;;;;;;5120483;28;20493;-84
2021/06/18 03:53:16;;;;;;;11.33;6.73;;;25.50;65.20;;;;;;5121280;28;20462;-85
2021/06/18 03:55:47;;;;;;;8.00;6.10;;;25.50;65.20;;;;;;5120108;28;20451;-85
2021/06/18 03:58:19;;;;;;;7.20;6.03;;;25.50;65.20;;;;;;5119790;28;20484;-85
2021/06/18 04:00:48;;;;;;;11.33;7.00;;;25.50;65.40;;;;;;5117148;28;20467;-85
2021/06/18 04:03:16;;;;;;;12.80;6.93;;;25.50;65.60;;;;;;5117646;28;20458;-85
2021/06/18 04:05:45;;;;;;;7.43;6.70;;;25.60;65.80;;;;;;5118875;28;20450;-85
2021/06/18 04:08:14;;;;;;;8.40;6.87;;;25.60;65.90;;;;;;5120227;28;20466;-84
2021/06/18 04:10:42;;;;;;;15.80;6.93;;;25.60;65.90;;;;;;5120223;28;20524;-84
2021/06/18 04:13:12;;;;;;;13.90;7.77;;;25.50;65.60;;;;;;5120157;28;20451;-84
2021/06/18 04:15:41;;;;;;;10.40;6.90;;;25.60;65.80;;;;;;5118676;28;20446;-85
2021/06/18 04:18:08;;;;;;;7.60;6.80;;;25.60;65.60;;;;;;5116185;28;20817;-85
2021/06/18 04:20:35;;;;;;;7.20;6.37;;;25.60;65.60;;;;;;5116011;28;20467;-86
2021/06/18 04:23:02;;;;;;;7.20;6.50;;;25.60;65.70;;;;;;5116145;28;20482;-85
2021/06/18 04:25:29;;;;;;;12.13;7.27;;;25.70;66.70;;;;;;5117000;28;20439;-85
2021/06/18 04:27:56;;;;;;;11.67;6.57;;;25.70;65.80;;;;;;5116579;28;20948;-85
2021/06/18 04:30:24;;;;;;;10.57;5.50;;;25.70;65.80;;;;;;5115632;28;20474;-85
2021/06/18 04:32:53;;;;;;;10.23;6.80;;;25.80;65.90;;;;;;5115858;28;20842;-86
2021/06/18 04:35:20;;;;;;;10.20;7.37;;;25.80;66.00;;;;;;5115613;28;20443;-86
2021/06/18 04:37:47;;;;;;;10.60;6.80;;;25.90;66.10;;;;;;5115795;28;20435;-86
2021/06/18 04:40:14;;;;;;;7.63;6.50;;;25.90;66.10;;;;;;5115937;28;20975;-85
2021/06/18 04:42:41;;;;;;;8.90;8.00;;;25.90;66.60;;;;;;5117015;28;20446;-85
2021/06/18 04:45:09;;;;;;;8.10;7.40;;;25.90;66.40;;;;;;5116166;28;20450;-85
2021/06/18 04:47:37;;;;;;;9.43;8.13;;;25.90;66.40;;;;;;5115760;28;20956;-85
2021/06/18 04:50:06;;;;;;;8.77;7.87;;;25.90;66.30;;;;;;5115230;28;20451;-86
2021/06/18 04:52:33;;;;;;;10.00;7.03;;;26.00;66.40;;;;;;5116424;28;20481;-85
2021/06/18 04:55:01;;;;;;;9.03;8.20;;;26.10;66.00;;;;;;5115928;28;20442;-85
2021/06/18 04:57:28;;;;;;;11.50;8.70;;;26.10;66.20;;;;;;5116521;28;21013;-86
2021/06/18 04:59:56;;;;;;;8.60;7.87;;;26.10;66.70;;;;;;5115192;28;20471;-86
2021/06/18 05:02:22;;;;;;;10.10;8.50;;;26.10;66.80;;;;;;5115719;28;20948;-86
2021/06/18 05:04:49;;;;;;;10.10;9.10;;;26.20;67.10;;;;;;5115785;28;20447;-86
2021/06/18 05:07:17;;;;;;;9.77;8.77;;;26.10;67.50;;;;;;5116732;28;20451;-86
2021/06/18 05:09:44;;;;;;;10.33;8.70;;;26.00;68.10;;;;;;5116151;28;20471;-85
2021/06/18 05:12:11;;;;;;;9.90;8.97;;;25.90;69.50;;;;;;5116131;28;20485;-85
2021/06/18 05:14:38;;;;;;;9.90;8.53;;;25.90;69.50;;;;;;5116078;28;20944;-86
2021/06/18 05:17:05;;;;;;;10.50;9.50;;;25.90;69.90;;;;;;5115422;28;20428;-86
2021/06/18 05:19:31;;;;;;;12.20;8.97;;;25.90;69.70;;;;;;5115246;28;20463;-86
2021/06/18 05:21:58;;;;;;;11.70;8.33;;;25.90;69.50;;;;;;5115272;28;20447;-86
2021/06/18 05:24:26;;;;;;;12.60;8.33;;;26.00;70.10;;;;;;5115821;28;20431;-86
2021/06/18 05:26:53;;;;;;;11.73;9.60;;;26.00;70.60;;;;;;5115304;28;20795;-85
2021/06/18 05:29:20;;;;;;;8.73;7.83;;;26.10;70.60;;;;;;5115804;28;20466;-85
2021/06/18 05:31:47;;;;;;;10.73;8.13;;;26.10;70.50;;;;;;5115350;28;20470;-85
2021/06/18 05:34:13;;;;;;;13.20;9.90;;;26.20;70.30;;;;;;5116326;28;20443;-84
2021/06/18 05:36:44;;;;;;;12.83;9.50;;;26.30;70.50;;;;;;5119559;28;20451;-84
2021/06/18 05:39:11;;;;;;;10.10;9.20;;;26.40;69.40;;;;;;5117469;28;20471;-84
2021/06/18 05:41:39;;;;;;;12.80;9.80;;;26.40;68.80;;;;;;5116980;28;20449;-85
2021/06/18 05:44:06;;;;;;;11.90;9.80;;;26.60;69.10;;;;;;5115722;28;20451;-85
2021/06/18 05:46:33;;;;;;;9.83;8.80;;;26.60;68.90;;;;;;5115246;28;20443;-85
2021/06/18 05:49:00;;;;;;;12.90;8.40;;;26.70;68.40;;;;;;5114678;28;20469;-86
2021/06/18 05:51:27;;;;;;;10.40;9.40;;;26.80;68.20;;;;;;5114576;28;20963;-85
2021/06/18 05:53:54;;;;;;;10.73;9.80;;;27.00;68.10;;;;;;5114763;28;20422;-87
2021/06/18 05:56:22;;;;;;;10.60;9.50;;;27.10;67.80;;;;;;5115027;28;20450;-88
2021/06/18 05:58:50;;;;;;;10.73;9.67;;;27.10;67.30;;;;;;5116243;28;20450;-87
2021/06/18 06:01:17;;;;;;;10.70;9.60;;;27.20;66.50;;;;;;5114151;28;21069;-87
2021/06/18 06:03:45;;;;;;;9.70;8.70;;;27.30;65.80;;;;;;5114989;28;20963;-86
2021/06/18 06:06:12;;;;;;;12.37;9.00;;;27.40;65.80;;;;;;5115471;28;20435;-87
2021/06/18 06:08:39;;;;;;;9.20;8.50;;;27.40;65.60;;;;;;5114561;28;20456;-88
2021/06/18 06:11:06;;;;;;;10.73;9.77;;;27.50;65.30;;;;;;5117927;28;20435;-87
2021/06/18 06:13:33;;;;;;;12.17;9.57;;;27.60;65.10;;;;;;5118691;28;20955;-87
2021/06/18 06:16:01;;;;;;;10.07;9.17;;;27.60;64.50;;;;;;5118507;28;20455;-87
2021/06/18 06:18:28;;;;;;;9.43;8.63;;;27.70;64.30;;;;;;5118803;28;20431;-87
2021/06/18 06:20:54;;;;;;;12.23;11.00;;;27.80;64.30;;;;;;5118426;28;20473;-88
2021/06/18 06:23:21;;;;;;;11.17;10.10;;;28.00;63.50;;;;;;5118438;28;20482;-87
2021/06/18 06:25:48;;;;;;;11.90;10.60;;;28.00;62.90;;;;;;5118575;28;20443;-87
2021/06/18 06:28:15;;;;;;;10.60;9.60;;;28.10;62.70;;;;;;5118812;28;20442;-87
2021/06/18 06:30:42;;;;;;;12.00;9.73;;;28.20;62.20;;;;;;5119269;28;20485;-87
2021/06/18 06:33:10;;;;;;;10.13;8.70;;;28.30;62.50;;;;;;5118588;28;20459;-88
2021/06/18 06:35:37;;;;;;;11.10;9.07;;;28.50;61.70;;;;;;5118320;28;20454;-88
2021/06/18 06:38:04;;;;;;;10.67;9.03;;;28.60;61.50;;;;;;5118779;28;20437;-88
2021/06/18 06:40:31;;;;;;;8.50;7.70;;;28.60;61.30;;;;;;5119144;28;20470;-88
2021/06/18 06:42:58;;;;;;;10.63;9.57;;;28.80;60.40;;;;;;5119496;28;20808;-89
2021/06/18 06:45:25;;;;;;;10.20;9.30;;;29.00;59.90;;;;;;5118892;28;20482;-89
2021/06/18 06:47:51;;;;;;;12.47;7.50;;;29.20;59.50;;;;;;5118621;28;20516;-88
2021/06/18 06:50:20;;;;;;;9.17;8.37;;;29.40;59.00;;;;;;5118412;28;20466;-88
2021/06/18 06:52:47;;;;;;;10.70;9.70;;;29.70;58.20;;;;;;5121005;28;20520;-88
2021/06/18 06:55:14;;;;;;;10.20;8.70;;;29.90;57.80;;;;;;5122240;28;20435;-89
2021/06/18 06:57:43;;;;;;;9.50;8.70;;;30.10;57.30;;;;;;5121382;28;20438;-89
2021/06/18 07:00:11;;;;;;;8.37;7.30;;;30.40;57.20;;;;;;5120445;28;20573;-89
2021/06/18 07:02:37;;;;;;;11.63;10.53;;;30.50;56.50;;;;;;5119317;28;20544;-88
2021/06/18 07:05:05;;;;;;;11.00;9.93;;;30.70;55.90;;;;;;5120310;28;20943;-89
2021/06/18 07:07:33;;;;;;;11.60;10.60;;;30.80;55.60;;;;;;5121621;28;20533;-87
2021/06/18 07:10:00;;;;;;;13.23;12.00;;;30.70;55.30;;;;;;5119688;28;20497;-87
2021/06/18 07:12:27;;;;;;;13.50;12.30;;;30.60;55.80;;;;;;5119748;28;20473;-88
2021/06/18 07:14:55;;;;;;;12.77;11.50;;;30.40;56.10;;;;;;5120621;28;20419;-88
2021/06/18 07:17:39;;;;;;;11.30;10.30;;;30.30;55.70;;;;;;5120493;28;20503;-89
2021/06/18 07:20:07;;;;;;;12.60;9.47;;;30.10;56.10;;;;;;5119962;28;20470;-88
2021/06/18 07:22:36;;;;;;;12.60;9.17;;;30.10;56.80;;;;;;5117876;28;20449;-88
2021/06/18 07:25:03;;;;;;;12.23;8.60;;;30.10;56.90;;;;;;5119276;28;20534;-88
2021/06/18 07:27:30;;;;;;;9.87;9.07;;;30.10;57.30;;;;;;5121323;28;20446;-89
2021/06/18 07:29:56;;;;;;;12.30;8.57;;;30.10;57.50;;;;;;5124377;28;20559;-88
2021/06/18 07:32:24;;;;;;;10.77;9.67;;;30.10;57.60;;;;;;5126956;28;20473;-88
2021/06/18 07:34:50;;;;;;;10.63;9.37;;;30.10;57.70;;;;;;5121344;28;20470;-88
2021/06/18 07:37:17;;;;;;;11.97;10.80;;;30.10;57.90;;;;;;5132228;27;20430;-87
2021/06/18 07:39:46;;;;;;;10.47;9.17;;;30.10;58.10;;;;;;5117694;28;20476;-88
2021/06/18 07:42:12;;;;;;;10.27;9.27;;;30.10;58.00;;;;;;5119427;28;20485;-88
2021/06/18 07:44:40;;;;;;;11.30;9.67;;;30.00;58.10;;;;;;5122019;28;20416;-88
2021/06/18 07:47:06;;;;;;;14.60;9.63;;;30.00;58.30;;;;;;5120545;28;20791;-87
2021/06/18 07:49:33;;;;;;;10.57;9.50;;;29.80;58.50;;;;;;5121223;28;20825;-88
2021/06/18 07:52:00;;;;;;;13.93;9.73;;;29.80;58.80;;;;;;5117854;28;21047;-88
2021/06/18 07:54:27;;;;;;;10.20;9.30;;;29.70;59.40;;;;;;5117134;28;20932;-87
2021/06/18 07:56:56;;;;;;;15.80;10.33;;;29.70;59.30;;;;;;5116905;28;20431;-88
2021/06/18 07:59:23;;;;;;;11.03;9.63;;;29.60;59.90;;;;;;5116634;28;20471;-87
2021/06/18 08:01:50;;;;;;;13.37;11.10;;;29.60;60.80;;;;;;5117565;28;20466;-88
2021/06/18 08:04:16;;;;;;;11.10;9.30;;;29.50;61.10;;;;;;5116672;28;20436;-88
2021/06/18 08:06:43;;;;;;;11.97;10.77;;;29.50;61.30;;;;;;5116642;28;20439;-88
2021/06/18 08:09:10;;;;;;;11.03;10.03;;;29.50;61.10;;;;;;5116399;28;20849;-88
2021/06/18 08:11:37;;;;;;;11.13;10.03;;;29.50;60.60;;;;;;5116456;28;20411;-88
2021/06/18 08:14:05;;;;;;;10.47;9.47;;;29.60;61.10;;;;;;5116243;28;20532;-89
2021/06/18 08:16:32;;;;;;;10.93;9.90;;;29.80;60.60;;;;;;5115980;28;20454;-88
2021/06/18 08:18:59;;;;;;;10.90;9.90;;;30.00;60.00;;;;;;5116383;28;20455;-88
2021/06/18 08:21:26;;;;;;;9.70;8.50;;;30.20;59.40;;;;;;5115951;28;20434;-88
2021/06/18 08:23:52;;;;;;;10.90;9.80;;;30.40;58.40;;;;;;5117288;28;20439;-88
2021/06/18 08:26:19;;;;;;;10.03;8.90;;;30.80;58.10;;;;;;5116274;28;20454;-89
2021/06/18 08:28:46;;;;;;;11.80;9.87;;;31.10;57.40;;;;;;5116215;28;20446;-88
2021/06/18 08:31:14;;;;;;;11.17;10.00;;;31.50;56.50;;;;;;5116336;28;20427;-89
2021/06/18 08:33:41;;;;;;;9.33;8.43;;;31.90;55.30;;;;;;5116116;28;20806;-86
2021/06/18 08:36:08;;;;;;;15.60;9.83;;;32.20;52.90;;;;;;5117037;28;20430;-86
2021/06/18 08:38:35;;;;;;;15.30;9.73;;;32.40;52.20;;;;;;5119012;28;20439;-85
2021/06/18 08:41:04;;;;;;;11.00;9.90;;;32.60;51.50;;;;;;5116650;28;20449;-85
2021/06/18 08:43:32;;;;;;;20.00;11.20;;;32.60;50.90;;;;;;5116925;28;20423;-85
2021/06/18 08:46:00;;;;;;;15.20;10.87;;;32.50;50.50;;;;;;5118124;28;20431;-85
2021/06/18 08:48:29;;;;;;;11.83;10.50;;;32.50;50.60;;;;;;5116578;28;20920;-85
2021/06/18 08:50:56;;;;;;;10.07;9.10;;;32.40;50.80;;;;;;5117880;28;20447;-85
2021/06/18 08:53:24;;;;;;;11.57;10.57;;;32.40;51.20;;;;;;5116705;28;21011;-84
2021/06/18 08:55:54;;;;;;;11.60;9.30;;;32.40;50.70;;;;;;5116095;28;20443;-85
2021/06/18 08:58:21;;;;;;;11.57;10.47;;;32.40;50.40;;;;;;5115570;28;20441;-87
2021/06/18 09:00:48;;;;;;;10.80;9.87;;;32.50;50.50;;;;;;5115039;28;20967;-86
2021/06/18 09:03:37;;;;;;;9.83;8.67;;;32.60;49.80;;;;;;5115415;28;20426;-86
2021/06/18 09:06:19;;;;;;;11.57;10.43;;;32.80;50.10;;;;;;5118251;28;20491;-86
2021/06/18 09:08:46;;;;;;;11.20;10.00;;;32.90;49.70;;;;;;5114783;28;20461;-85
2021/06/18 09:11:15;;;;;;;14.63;11.60;;;33.10;50.30;;;;;;5116556;28;20430;-84
2021/06/18 09:13:42;;;;;;;12.63;10.10;;;33.30;49.70;;;;;;5115663;28;20481;-86
2021/06/18 09:16:09;;;;;;;11.10;9.50;;;33.60;49.50;;;;;;5115005;28;20441;-86
2021/06/18 09:18:39;;;;;;;15.60;10.97;;;33.80;48.90;;;;;;5114977;28;20446;-86
2021/06/18 09:21:26;;;;;;;10.80;9.60;;;34.10;48.80;;;;;;5116532;28;20423;-86
2021/06/18 09:23:54;;;;;;;9.47;8.50;;;34.20;45.50;;;;;;5117699;28;20426;-86
2021/06/18 09:26:27;;;;;;;10.50;8.80;;;34.30;45.40;;;;;;5117912;28;20431;-85
2021/06/18 09:29:08;;;;;;;10.73;8.83;;;34.60;45.70;;;;;;5114788;28;20794;-86
2021/06/18 09:31:37;;;;;;;10.90;8.97;;;34.80;45.40;;;;;;5115355;28;20531;-86
2021/06/18 09:34:15;;;;;;;11.60;8.27;;;35.10;43.40;;;;;;5119029;28;20831;-85
2021/06/18 09:36:43;;;;;;;9.90;7.00;;;35.40;43.20;;;;;;5118701;28;20431;-85
2021/06/18 09:39:13;;;;;;;9.30;7.00;;;35.70;42.00;;;;;;5117916;28;20470;-85
2021/06/18 09:41:42;;;;;;;9.20;6.17;;;35.90;38.80;;;;;;5116960;28;20445;-85
2021/06/18 09:44:11;;;;;;;9.13;7.17;;;36.10;38.40;;;;;;5120914;28;20439;-85
2021/06/18 09:46:43;;;;;;;10.80;7.00;;;36.30;40.10;;;;;;5118738;28;20442;-85
2021/06/18 09:49:14;;;;;;;10.83;6.97;;;36.50;39.60;;;;;;5123822;28;20549;-84
2021/06/18 09:51:55;;;;;;;7.43;6.40;;;36.80;39.30;;;;;;5124151;28;20499;-83
2021/06/18 09:54:22;;;;;;;9.37;6.33;;;37.00;38.30;;;;;;5123138;28;20466;-84
2021/06/18 09:56:49;;;;;;;9.20;6.27;;;37.10;37.50;;;;;;5118953;28;20430;-84
2021/06/18 09:59:23;;;;;;;9.67;6.70;;;37.40;37.10;;;;;;5116113;28;20808;-86
2021/06/18 10:01:54;;;;;;;8.80;6.10;;;37.60;36.30;;;;;;5115263;28;20442;-86
2021/06/18 10:04:24;;;;;;;7.53;5.77;;;38.00;35.20;;;;;;5118885;28;20279;-86
2021/06/18 10:06:52;;;;;;;7.70;6.50;;;38.30;33.90;;;;;;5119944;28;20239;-85
2021/06/18 10:09:19;;;;;;;7.50;6.80;;;38.50;33.30;;;;;;5116630;28;20267;-86
2021/06/18 10:11:46;;;;;;;13.07;6.80;;;38.60;33.30;;;;;;5114319;28;20295;-86
2021/06/18 10:14:14;;;;;;;7.20;6.18;;;38.70;33.40;;;;;;5115078;28;20703;-85
2021/06/18 10:16:42;;;;;;;6.78;6.20;;;38.90;33.20;;;;;;5118207;28;20189;-85
2021/06/18 10:19:09;;;;;;;6.85;6.15;;;39.20;32.60;;;;;;5116385;28;20228;-85
2021/06/18 10:21:47;;;;;;;7.40;6.57;;;39.30;31.50;;;;;;5115208;28;20184;-86
2021/06/18 10:24:16;;;;;;;10.43;7.53;;;39.30;31.40;;;;;;5115131;28;20638;-86
2021/06/18 10:26:49;;;;;;;8.02;6.78;;;39.50;31.70;;;;;;5114689;28;20227;-87
2021/06/18 10:29:29;;;;;;;9.63;6.32;;;39.50;31.40;;;;;;5115897;28;20224;-86
2021/06/18 10:31:56;;;;;;;9.15;6.28;;;39.50;30.80;;;;;;5115404;28;20181;-85
2021/06/18 10:34:38;;;;;;;12.07;6.68;;;39.70;31.30;;;;;;5114562;28;20217;-86
2021/06/18 10:37:21;;;;;;;9.05;6.32;;;39.90;29.70;;;;;;5113919;28;20650;-86
2021/06/18 10:39:52;;;;;;;9.50;5.95;;;39.80;29.50;;;;;;5114133;28;20239;-87
2021/06/18 10:42:21;;;;;;;5.95;5.35;;;39.60;29.50;;;;;;5114126;28;20181;-86
2021/06/18 10:44:50;;;;;;;8.55;6.53;;;39.50;29.80;;;;;;5114070;28;20181;-86
2021/06/18 10:47:54;;;;;;;9.68;6.85;;;39.90;31.00;;;;;;5114284;28;20177;-87
2021/06/18 10:50:46;;;;;;;11.95;7.95;;;40.40;29.60;;;;;;5114132;28;20227;-87
2021/06/18 10:53:24;;;;;;;11.18;6.47;;;41.00;29.10;;;;;;5114036;28;20212;-87
2021/06/18 10:55:55;;;;;;;7.00;6.30;;;41.30;29.00;;;;;;5114005;28;20556;-87
2021/06/18 10:58:22;;;;;;;7.55;6.13;;;41.80;28.80;;;;;;5117885;28;20188;-87
2021/06/18 11:00:49;;;;;;;8.18;6.28;;;42.40;27.40;;;;;;5118125;28;20247;-88
2021/06/18 11:03:18;;;;;;;11.18;6.45;;;42.70;26.30;;;;;;5118128;28;20209;-88
2021/06/18 11:05:47;;;;;;;9.32;6.03;;;43.40;26.80;;;;;;5118195;28;20191;-88
2021/06/18 11:08:29;;;;;;;9.23;6.10;;;43.70;25.00;;;;;;5117437;28;20609;-89
2021/06/18 11:10:59;;;;;;;10.52;6.32;;;43.60;24.70;;;;;;5118375;28;20247;-89
2021/06/18 11:13:27;;;;;;;11.55;6.07;;;42.90;24.90;;;;;;5117582;28;20216;-88
2021/06/18 11:15:54;;;;;;;9.32;6.93;;;42.70;25.80;;;;;;5117696;28;20211;-88
2021/06/18 11:18:38;;;;;;;12.48;6.15;;;42.60;26.50;;;;;;5117683;28;20212;-87
2021/06/18 11:21:08;;;;;;;11.95;6.07;;;42.20;26.80;;;;;;5118034;28;20185;-88
2021/06/18 11:23:39;;;;;;;9.27;6.63;;;42.00;27.80;;;;;;5118577;28;20197;-88
2021/06/18 11:26:21;;;;;;;9.20;6.57;;;42.30;27.40;;;;;;5117934;28;20204;-89
2021/06/18 11:28:52;;;;;;;9.65;6.60;;;42.60;27.70;;;;;;5117057;28;20203;-87
2021/06/18 11:31:40;;;;;;;7.78;6.20;;;42.70;27.80;;;;;;5118162;28;20181;-89
2021/06/18 11:34:07;;;;;;;12.30;7.15;;;42.70;27.10;;;;;;5116957;28;20695;-88
2021/06/18 11:36:43;;;;;;;10.35;5.95;;;42.90;27.50;;;;;;5118003;28;20200;-89
2021/06/18 11:39:32;;;;;;;7.82;5.38;;;43.70;26.30;;;;;;5117056;28;20689;-88
2021/06/18 11:42:05;;;;;;;9.70;6.28;;;44.70;24.50;;;;;;5109508;28;20207;-88
2021/06/18 11:44:33;;;;;;;13.55;6.03;;;45.40;23.40;;;;;;5118095;28;20368;-89
2021/06/18 11:47:00;;;;;;;10.90;6.30;;;46.00;23.90;;;;;;5121905;28;20203;-89
2021/06/18 11:49:33;;;;;;;13.77;5.07;;;46.70;23.60;;;;;;5124643;28;20226;-88
2021/06/18 11:52:06;;;;;;;9.15;5.00;;;47.30;23.10;;;;;;5117787;28;20534;-90
2021/06/18 11:54:36;;;;;;;9.95;4.72;;;47.90;22.10;;;;;;5117213;28;20224;-89
2021/06/18 11:57:16;;;;;;;8.68;4.63;;;48.40;20.90;;;;;;5117832;28;20252;-89
2021/06/18 11:59:56;;;;;;;10.90;4.70;;;48.90;21.20;;;;;;5117055;28;20231;-88
2021/06/18 12:02:24;;;;;;;9.30;4.70;;;48.90;17.50;;;;;;5117137;28;20188;-90
2021/06/18 12:05:09;;;;;;;7.43;4.05;;;48.60;17.90;;;;;;5116799;28;20188;-89
2021/06/18 12:07:37;;;;;;;7.78;4.60;;;48.60;17.80;;;;;;5116126;28;20699;-89
2021/06/18 12:10:07;;;;;;;6.50;4.30;;;48.50;18.80;;;;;;5116662;28;20232;-89
2021/06/18 12:12:48;;;;;;;7.15;4.25;;;48.60;19.50;;;;;;5116511;28;20211;-89
2021/06/18 12:15:22;;;;;;;10.55;4.00;;;48.90;17.90;;;;;;5116398;28;20209;-89
2021/06/18 12:17:50;;;;;;;6.53;3.80;;;49.00;17.50;;;;;;5117415;28;20184;-89
2021/06/18 12:20:23;;;;;;;8.30;3.80;;;49.20;16.50;;;;;;5117135;28;20242;-89
2021/06/18 12:22:50;;;;;;;5.57;3.85;;;49.30;17.00;;;;;;5117716;28;20185;-89
2021/06/18 12:25:18;;;;;;;5.65;3.33;;;49.60;16.20;;;;;;5117268;28;20191;-88
2021/06/18 12:27:46;;;;;;;6.82;3.95;;;50.00;16.30;;;;;;5116883;28;20189;-88
2021/06/18 12:30:15;;;;;;;4.15;3.22;;;50.40;16.70;;;;;;5117103;28;20224;-89
2021/06/18 12:32:42;;;;;;;5.10;3.47;;;50.50;14.50;;;;;;5117076;28;20207;-89
2021/06/18 12:35:11;;;;;;;4.95;3.50;;;50.70;14.80;;;;;;5116614;28;20205;-89
2021/06/18 12:37:40;;;;;;;5.25;3.28;;;51.10;15.60;;;;;;5116999;28;20205;-89
2021/06/18 12:40:12;;;;;;;6.95;3.20;;;51.50;15.10;;;;;;5117033;28;20220;-89
2021/06/18 12:42:41;;;;;;;7.13;4.22;;;51.90;14.40;;;;;;5117106;28;20196;-89
2021/06/18 12:45:12;;;;;;;6.38;4.05;;;51.90;14.70;;;;;;5116318;28;20196;-89
2021/06/18 12:47:40;;;;;;;8.40;4.13;;;51.30;14.60;;;;;;5116149;28;20638;-89
2021/06/18 12:50:28;;;;;;;8.10;3.90;;;50.60;14.60;;;;;;5116379;28;20221;-88
2021/06/18 12:52:56;;;;;;;5.07;3.60;;;50.50;15.20;;;;;;5115691;28;20187;-88